sensor_id;sensor_type;location;lat;lon;timestamp;pressure;altitude;pressure_sealevel;temperature;humidity
25156;BME280;21913;52.456;13.634;2022-09-21T00:05:00;101270.75;;;17.54;68.63
25156;BME280;21913;52.456;13.634;2022-09-21T00:10:01;101267.28;;;17.54;68.72
25156;BME280;21913;52.456;13.634;2022-09-21T00:15:08;101273.41;;;17.53;68.59
25156;BME280;21913;52.456;13.634;2022-09-21T00:20:10;101285.59;;;17.54;68.50
25156;BME280;21913;52.456;13.634;2022-09-21T00:25:12;101275.13;;;17.54;68.68
25156;BME280;21913;52.456;13.634;2022-09-21T00:30:13;101276.88;;;17.53;68.38
25156;BME280;21913;52.456;13.634;2022-09-21T00:35:15;101272.53;;;17.52;68.67
25156;BME280;21913;52.456;13.634;2022-09-21T00:40:16;101273.41;;;17.53;68.64
25156;BME280;21913;52.456;13.634;2022-09-21T00:45:18;101280.38;;;17.54;68.69
25156;BME280;21913;52.456;13.634;2022-09-21T00:50:22;101282.97;;;17.54;68.52
25156;BME280;21913;52.456;13.634;2022-09-21T00:55:28;101284.72;;;17.53;68.46
25156;BME280;21913;52.456;13.634;2022-09-21T01:00:30;101291.72;;;17.53;68.50
25156;BME280;21913;52.456;13.634;2022-09-21T01:05:32;101291.72;;;17.53;68.64
25156;BME280;21913;52.456;13.634;2022-09-21T01:10:45;101284.72;;;17.53;68.52
25156;BME280;21913;52.456;13.634;2022-09-21T01:16:00;101289.09;;;17.53;68.60
25156;BME280;21913;52.456;13.634;2022-09-21T01:21:25;101294.34;;;17.53;68.52
25156;BME280;21913;52.456;13.634;2022-09-21T01:26:42;101296.94;;;17.53;68.71
25156;BME280;21913;52.456;13.634;2022-09-21T01:32:49;101288.25;;;17.52;68.41
25156;BME280;21913;52.456;13.634;2022-09-21T01:37:43;101293.47;;;17.52;68.45
25156;BME280;21913;52.456;13.634;2022-09-21T01:42:47;101301.31;;;17.52;68.50
25156;BME280;21913;52.456;13.634;2022-09-21T01:47:50;101303.97;;;17.51;68.42
25156;BME280;21913;52.456;13.634;2022-09-21T02:03:49;101301.34;;;17.51;68.35
25156;BME280;21913;52.456;13.634;2022-09-21T02:08:52;101298.72;;;17.51;68.55
25156;BME280;21913;52.456;13.634;2022-09-21T02:13:54;101303.97;;;17.51;68.33
25156;BME280;21913;52.456;13.634;2022-09-21T02:29:16;101305.69;;;17.52;68.58
25156;BME280;21913;52.456;13.634;2022-09-21T02:34:33;101302.19;;;17.50;68.41
25156;BME280;21913;52.456;13.634;2022-09-21T02:39:58;101297.81;;;17.50;68.27
25156;BME280;21913;52.456;13.634;2022-09-21T02:45:06;101300.44;;;17.50;68.44
25156;BME280;21913;52.456;13.634;2022-09-21T02:50:14;101291.72;;;17.50;68.21
25156;BME280;21913;52.456;13.634;2022-09-21T02:55:17;101291.72;;;17.50;68.25
25156;BME280;21913;52.456;13.634;2022-09-21T03:00:19;101291.75;;;17.48;68.41
25156;BME280;21913;52.456;13.634;2022-09-21T03:05:20;101294.38;;;17.48;68.35
25156;BME280;21913;52.456;13.634;2022-09-21T03:10:21;101295.22;;;17.49;68.27
25156;BME280;21913;52.456;13.634;2022-09-21T03:15:23;101295.22;;;17.49;68.05
25156;BME280;21913;52.456;13.634;2022-09-21T03:20:25;101304.81;;;17.50;68.48
25156;BME280;21913;52.456;13.634;2022-09-21T03:25:27;101299.56;;;17.50;68.21
25156;BME280;21913;52.456;13.634;2022-09-21T03:30:29;101296.09;;;17.49;68.33
25156;BME280;21913;52.456;13.634;2022-09-21T03:35:31;101302.19;;;17.50;68.34
25156;BME280;21913;52.456;13.634;2022-09-21T03:40:33;101297.84;;;17.49;68.20
25156;BME280;21913;52.456;13.634;2022-09-21T03:45:34;101297.84;;;17.49;68.17
25156;BME280;21913;52.456;13.634;2022-09-21T03:50:36;101299.59;;;17.48;68.12
25156;BME280;21913;52.456;13.634;2022-09-21T03:55:38;101306.59;;;17.48;68.35
25156;BME280;21913;52.456;13.634;2022-09-21T04:00:40;101306.59;;;17.48;68.14
25156;BME280;21913;52.456;13.634;2022-09-21T04:05:41;101302.22;;;17.48;68.15
25156;BME280;21913;52.456;13.634;2022-09-21T04:10:43;101309.19;;;17.48;68.13
25156;BME280;21913;52.456;13.634;2022-09-21T04:15:44;101307.47;;;17.47;68.28
25156;BME280;21913;52.456;13.634;2022-09-21T04:20:46;101310.97;;;17.47;68.22
25156;BME280;21913;52.456;13.634;2022-09-21T04:25:48;101301.34;;;17.48;68.01
25156;BME280;21913;52.456;13.634;2022-09-21T04:30:53;101313.56;;;17.47;68.12
25156;BME280;21913;52.456;13.634;2022-09-21T04:35:54;101310.97;;;17.47;68.17
25156;BME280;21913;52.456;13.634;2022-09-21T04:40:57;101307.47;;;17.47;68.07
25156;BME280;21913;52.456;13.634;2022-09-21T04:46:06;101304.84;;;17.47;68.15
25156;BME280;21913;52.456;13.634;2022-09-21T04:51:09;101313.59;;;17.46;68.05
25156;BME280;21913;52.456;13.634;2022-09-21T04:56:13;101310.97;;;17.47;68.12
25156;BME280;21913;52.456;13.634;2022-09-21T05:01:15;101317.06;;;17.46;68.13
25156;BME280;21913;52.456;13.634;2022-09-21T05:06:16;101326.66;;;17.47;68.04
25156;BME280;21913;52.456;13.634;2022-09-21T05:11:18;101330.16;;;17.46;68.05
25156;BME280;21913;52.456;13.634;2022-09-21T05:16:19;101335.38;;;17.46;67.97
25156;BME280;21913;52.456;13.634;2022-09-21T05:21:21;101341.50;;;17.47;68.06
25156;BME280;21913;52.456;13.634;2022-09-21T05:26:23;101344.13;;;17.45;68.03
25156;BME280;21913;52.456;13.634;2022-09-21T05:31:46;101351.09;;;17.46;67.90
25156;BME280;21913;52.456;13.634;2022-09-21T05:42:02;101352.13;;;17.21;62.10
25156;BME280;21913;52.456;13.634;2022-09-21T05:47:23;101360.84;;;17.24;62.46
25156;BME280;21913;52.456;13.634;2022-09-21T05:52:37;101356.44;;;17.28;63.08
25156;BME280;21913;52.456;13.634;2022-09-21T05:57:50;101359.03;;;17.32;63.30
25156;BME280;21913;52.456;13.634;2022-09-21T06:03:21;101359.91;;;17.34;63.57
25156;BME280;21913;52.456;13.634;2022-09-21T06:08:25;101365.97;;;17.33;63.83
25156;BME280;21913;52.456;13.634;2022-09-21T06:13:27;101362.50;;;17.34;64.20
25156;BME280;21913;52.456;13.634;2022-09-21T06:18:28;101375.56;;;17.36;64.20
25156;BME280;21913;52.456;13.634;2022-09-21T06:23:30;101377.31;;;17.37;64.59
25156;BME280;21913;52.456;13.634;2022-09-21T06:28:31;101373.81;;;17.38;64.79
25156;BME280;21913;52.456;13.634;2022-09-21T06:33:33;101376.41;;;17.38;64.58
25156;BME280;21913;52.456;13.634;2022-09-21T06:38:34;101374.66;;;17.39;64.70
25156;BME280;21913;52.456;13.634;2022-09-21T06:43:37;101377.28;;;17.39;64.99
25156;BME280;21913;52.456;13.634;2022-09-21T06:48:38;101380.75;;;17.39;65.10
25156;BME280;21913;52.456;13.634;2022-09-21T06:53:40;101386.88;;;17.40;65.09
25156;BME280;21913;52.456;13.634;2022-09-21T06:58:41;101376.41;;;17.40;65.36
25156;BME280;21913;52.456;13.634;2022-09-21T07:03:43;101382.50;;;17.39;65.40
25156;BME280;21913;52.456;13.634;2022-09-21T07:08:46;101384.25;;;17.40;65.37
25156;BME280;21913;52.456;13.634;2022-09-21T07:14:07;101384.28;;;17.38;65.45
25156;BME280;21913;52.456;13.634;2022-09-21T07:19:09;101388.63;;;17.39;65.58
25156;BME280;21913;52.456;13.634;2022-09-21T07:24:11;101392.97;;;17.39;65.57
25156;BME280;21913;52.456;13.634;2022-09-21T07:29:13;101387.75;;;17.39;65.64
25156;BME280;21913;52.456;13.634;2022-09-21T07:34:14;101387.75;;;17.39;65.67
25156;BME280;21913;52.456;13.634;2022-09-21T07:39:16;101392.13;;;17.38;65.68
25156;BME280;21913;52.456;13.634;2022-09-21T07:44:17;101387.75;;;17.39;66.03
25156;BME280;21913;52.456;13.634;2022-09-21T07:49:19;101391.25;;;17.38;65.96
25156;BME280;21913;52.456;13.634;2022-09-21T07:54:20;101389.50;;;17.38;65.88
25156;BME280;21913;52.456;13.634;2022-09-21T07:59:22;101394.72;;;17.38;66.01
25156;BME280;21913;52.456;13.634;2022-09-21T08:04:23;101387.78;;;17.37;66.16
25156;BME280;21913;52.456;13.634;2022-09-21T08:09:24;101388.63;;;17.38;66.21
25156;BME280;21913;52.456;13.634;2022-09-21T08:14:26;101388.63;;;17.38;66.04
25156;BME280;21913;52.456;13.634;2022-09-21T08:19:27;101387.88;;;17.17;62.85
25156;BME280;21913;52.456;13.634;2022-09-21T08:24:29;101388.06;;;16.79;60.75
25156;BME280;21913;52.456;13.634;2022-09-21T08:29:30;101389.84;;;16.62;59.98
25156;BME280;21913;52.456;13.634;2022-09-21T08:34:32;101397.69;;;16.72;59.72
25156;BME280;21913;52.456;13.634;2022-09-21T08:39:33;101401.97;;;16.90;59.32
25156;BME280;21913;52.456;13.634;2022-09-21T08:49:50;101406.19;;;17.17;60.27
25156;BME280;21913;52.456;13.634;2022-09-21T08:55:02;101402.69;;;17.24;60.41
25156;BME280;21913;52.456;13.634;2022-09-21T09:00:12;101408.75;;;17.31;60.71
25156;BME280;21913;52.456;13.634;2022-09-21T09:05:47;101405.22;;;17.35;61.02
25156;BME280;21913;52.456;13.634;2022-09-21T09:11:09;101405.19;;;17.38;61.37
25156;BME280;21913;52.456;13.634;2022-09-21T09:21:48;101405.19;;;17.41;61.76
25156;BME280;21913;52.456;13.634;2022-09-21T09:26:53;101402.56;;;17.43;62.12
25156;BME280;21913;52.456;13.634;2022-09-21T09:31:58;101406.03;;;17.43;62.34
25156;BME280;21913;52.456;13.634;2022-09-21T09:37:16;101411.25;;;17.45;62.52
25156;BME280;21913;52.456;13.634;2022-09-21T09:42:30;101410.38;;;17.44;62.79
25156;BME280;21913;52.456;13.634;2022-09-21T09:47:54;101403.41;;;17.45;62.67
25156;BME280;21913;52.456;13.634;2022-09-21T09:53:04;101411.25;;;17.45;62.90
25156;BME280;21913;52.456;13.634;2022-09-21T09:58:19;101411.28;;;17.43;63.12
25156;BME280;21913;52.456;13.634;2022-09-21T10:03:23;101402.56;;;17.43;63.27
25156;BME280;21913;52.456;13.634;2022-09-21T10:13:34;101401.72;;;17.41;63.59
25156;BME280;21913;52.456;13.634;2022-09-21T10:23:50;101394.72;;;17.41;63.77
25156;BME280;21913;52.456;13.634;2022-09-21T10:34:25;101387.75;;;17.40;63.86
25156;BME280;21913;52.456;13.634;2022-09-21T10:39:28;101393.00;;;17.40;64.04
25156;BME280;21913;52.456;13.634;2022-09-21T10:49:51;101386.00;;;17.41;64.25
25156;BME280;21913;52.456;13.634;2022-09-21T10:54:54;101377.28;;;17.39;64.25
25156;BME280;21913;52.456;13.634;2022-09-21T10:59:56;101385.13;;;17.39;64.48
25156;BME280;21913;52.456;13.634;2022-09-21T11:05:04;101386.00;;;17.39;64.47
25156;BME280;21913;52.456;13.634;2022-09-21T11:26:26;101377.28;;;17.39;64.88
25156;BME280;21913;52.456;13.634;2022-09-21T11:36:49;101366.81;;;17.39;64.79
25156;BME280;21913;52.456;13.634;2022-09-21T11:47:39;101363.34;;;17.38;65.03
25156;BME280;21913;52.456;13.634;2022-09-21T12:30:21;101331.94;;;17.38;65.46
25156;BME280;21913;52.456;13.634;2022-09-21T12:35:36;101337.19;;;17.38;65.40
25156;BME280;21913;52.456;13.634;2022-09-21T12:40:52;101332.81;;;17.39;65.62
25156;BME280;21913;52.456;13.634;2022-09-21T12:45:58;101329.34;;;17.38;65.72
25156;BME280;21913;52.456;13.634;2022-09-21T12:51:16;101326.72;;;17.38;65.52
25156;BME280;21913;52.456;13.634;2022-09-21T12:56:31;101318.88;;;17.38;65.70
25156;BME280;21913;52.456;13.634;2022-09-21T13:07:09;101318.88;;;17.38;65.68
25156;BME280;21913;52.456;13.634;2022-09-21T13:12:19;101321.47;;;17.38;65.87
25156;BME280;21913;52.456;13.634;2022-09-21T13:17:25;101316.25;;;17.38;65.82
25156;BME280;21913;52.456;13.634;2022-09-21T13:22:31;101311.88;;;17.39;65.88
25156;BME280;21913;52.456;13.634;2022-09-21T13:32:57;101304.06;;;17.35;66.03
25156;BME280;21913;52.456;13.634;2022-09-21T13:43:45;101294.47;;;17.38;65.93
25156;BME280;21913;52.456;13.634;2022-09-21T13:48:51;101288.34;;;17.37;66.00
25156;BME280;21913;52.456;13.634;2022-09-21T13:53:55;101283.13;;;17.37;65.91
25156;BME280;21913;52.456;13.634;2022-09-21T13:58:57;101286.59;;;17.38;66.18
25156;BME280;21913;52.456;13.634;2022-09-21T14:04:14;101285.78;;;17.35;64.82
25156;BME280;21913;52.456;13.634;2022-09-21T14:09:22;101282.28;;;17.35;64.17
25156;BME280;21913;52.456;13.634;2022-09-21T14:14:36;101281.41;;;17.34;64.34
25156;BME280;21913;52.456;13.634;2022-09-21T14:29:59;101269.19;;;17.37;64.50
25156;BME280;21913;52.456;13.634;2022-09-21T14:35:12;101266.56;;;17.37;64.81
25156;BME280;21913;52.456;13.634;2022-09-21T14:40:26;101256.09;;;17.37;64.95
25156;BME280;21913;52.456;13.634;2022-09-21T14:51:04;101249.16;;;17.32;61.75
25156;BME280;21913;52.456;13.634;2022-09-21T14:56:20;101247.44;;;17.31;60.35
25156;BME280;21913;52.456;13.634;2022-09-21T15:06:33;101242.16;;;17.33;61.22
25156;BME280;21913;52.456;13.634;2022-09-21T15:11:41;101242.19;;;17.34;61.56
25156;BME280;21913;52.456;13.634;2022-09-21T15:16:48;101230.81;;;17.34;61.86
25156;BME280;21913;52.456;13.634;2022-09-21T15:22:16;101232.59;;;17.35;61.60
25156;BME280;21913;52.456;13.634;2022-09-21T15:27:17;101229.09;;;17.34;61.01
25156;BME280;21913;52.456;13.634;2022-09-21T15:32:38;101227.34;;;17.35;61.46
25156;BME280;21913;52.456;13.634;2022-09-21T15:37:40;101216.88;;;17.35;61.88
25156;BME280;21913;52.456;13.634;2022-09-21T15:48:05;101209.03;;;17.35;62.14
25156;BME280;21913;52.456;13.634;2022-09-21T15:53:17;101216.88;;;17.37;62.48
25156;BME280;21913;52.456;13.634;2022-09-21T15:58:35;101209.00;;;17.37;62.53
25156;BME280;21913;52.456;13.634;2022-09-21T16:03:37;101204.69;;;17.35;62.77
25156;BME280;21913;52.456;13.634;2022-09-21T16:08:39;101214.25;;;17.37;62.94
25156;BME280;21913;52.456;13.634;2022-09-21T16:13:42;101213.38;;;17.36;63.12
25156;BME280;21913;52.456;13.634;2022-09-21T16:18:52;101205.53;;;17.36;63.37
25156;BME280;21913;52.456;13.634;2022-09-21T16:23:55;101213.38;;;17.36;63.27
25156;BME280;21913;52.456;13.634;2022-09-21T16:34:28;101211.63;;;17.37;63.42
25156;BME280;21913;52.456;13.634;2022-09-21T16:39:31;101213.38;;;17.36;63.61
25156;BME280;21913;52.456;13.634;2022-09-21T16:44:32;101218.63;;;17.36;63.82
25156;BME280;21913;52.456;13.634;2022-09-21T16:49:34;101222.97;;;17.35;63.75
25156;BME280;21913;52.456;13.634;2022-09-21T16:54:35;101223.84;;;17.36;63.79
25156;BME280;21913;52.456;13.634;2022-09-21T16:59:37;101220.38;;;17.35;64.09
25156;BME280;21913;52.456;13.634;2022-09-21T17:04:39;101223.84;;;17.36;64.16
25156;BME280;21913;52.456;13.634;2022-09-21T17:09:42;101221.22;;;17.36;63.95
25156;BME280;21913;52.456;13.634;2022-09-21T17:14:44;101216.88;;;17.35;63.98
25156;BME280;21913;52.456;13.634;2022-09-21T17:19:48;101219.50;;;17.35;64.19
25156;BME280;21913;52.456;13.634;2022-09-21T17:24:50;101216.88;;;17.35;64.26
25156;BME280;21913;52.456;13.634;2022-09-21T17:29:52;101222.13;;;17.35;64.19
25156;BME280;21913;52.456;13.634;2022-09-21T17:40:16;101219.50;;;17.35;64.30
25156;BME280;21913;52.456;13.634;2022-09-21T17:50:25;101227.34;;;17.35;64.52
25156;BME280;21913;52.456;13.634;2022-09-21T17:55:28;101228.22;;;17.35;64.59
25156;BME280;21913;52.456;13.634;2022-09-21T18:00:52;101229.09;;;17.34;64.48
25156;BME280;21913;52.456;13.634;2022-09-21T18:05:52;101236.06;;;17.35;64.58
25156;BME280;21913;52.456;13.634;2022-09-21T18:21:28;101238.66;;;17.34;64.65
25156;BME280;21913;52.456;13.634;2022-09-21T18:26:30;101243.03;;;17.35;64.59
25156;BME280;21913;52.456;13.634;2022-09-21T18:53:53;101243.97;;;17.29;62.92
25156;BME280;21913;52.456;13.634;2022-09-21T18:58:55;101244.81;;;17.28;62.89
25156;BME280;21913;52.456;13.634;2022-09-21T19:03:58;101247.44;;;17.30;63.18
25156;BME280;21913;52.456;13.634;2022-09-21T19:25:18;101247.44;;;17.30;63.38
25156;BME280;21913;52.456;13.634;2022-09-21T19:30:20;101247.44;;;17.31;63.67
25156;BME280;21913;52.456;13.634;2022-09-21T19:35:26;101250.03;;;17.31;63.69
25156;BME280;21913;52.456;13.634;2022-09-21T19:40:31;101246.56;;;17.31;63.53
25156;BME280;21913;52.456;13.634;2022-09-21T19:50:53;101246.59;;;17.29;63.78
25156;BME280;21913;52.456;13.634;2022-09-21T19:55:55;101241.34;;;17.29;63.96
25156;BME280;21913;52.456;13.634;2022-09-21T20:00:58;101240.47;;;17.30;63.73
25156;BME280;21913;52.456;13.634;2022-09-21T20:06:06;101242.19;;;17.31;63.80
25156;BME280;21913;52.456;13.634;2022-09-21T20:11:10;101236.09;;;17.31;63.93
25156;BME280;21913;52.456;13.634;2022-09-21T20:21:33;101234.34;;;17.31;64.25
25156;BME280;21913;52.456;13.634;2022-09-21T20:26:37;101230.00;;;17.30;64.06
25156;BME280;21913;52.456;13.634;2022-09-21T20:31:38;101234.38;;;17.30;64.01
25156;BME280;21913;52.456;13.634;2022-09-21T20:36:40;101232.63;;;17.30;64.17
25156;BME280;21913;52.456;13.634;2022-09-21T20:41:41;101236.09;;;17.31;64.34
25156;BME280;21913;52.456;13.634;2022-09-21T20:46:43;101235.22;;;17.30;64.31
25156;BME280;21913;52.456;13.634;2022-09-21T20:51:44;101236.09;;;17.31;64.28
25156;BME280;21913;52.456;13.634;2022-09-21T20:56:46;101237.84;;;17.30;64.26
25156;BME280;21913;52.456;13.634;2022-09-21T21:01:47;101240.44;;;17.32;64.39
25156;BME280;21913;52.456;13.634;2022-09-21T21:06:49;101239.56;;;17.31;64.36
25156;BME280;21913;52.456;13.634;2022-09-21T21:11:51;101234.34;;;17.31;64.36
25156;BME280;21913;52.456;13.634;2022-09-21T21:16:52;101240.47;;;17.30;64.27
25156;BME280;21913;52.456;13.634;2022-09-21T21:21:54;101239.56;;;17.31;64.24
25156;BME280;21913;52.456;13.634;2022-09-21T21:26:56;101238.72;;;17.31;64.26
25156;BME280;21913;52.456;13.634;2022-09-21T21:32:02;101242.19;;;17.31;64.29
25156;BME280;21913;52.456;13.634;2022-09-21T21:37:03;101247.44;;;17.30;64.39
25156;BME280;21913;52.456;13.634;2022-09-21T21:42:05;101245.69;;;17.30;64.37
25156;BME280;21913;52.456;13.634;2022-09-21T21:47:07;101244.84;;;17.30;64.61
25156;BME280;21913;52.456;13.634;2022-09-21T21:52:21;101245.69;;;17.30;64.62
25156;BME280;21913;52.456;13.634;2022-09-21T21:57:23;101243.09;;;17.30;64.64
25156;BME280;21913;52.456;13.634;2022-09-21T22:02:24;101242.19;;;17.31;64.53
25156;BME280;21913;52.456;13.634;2022-09-21T22:07:26;101238.75;;;17.29;64.54
25156;BME280;21913;52.456;13.634;2022-09-21T22:12:27;101240.47;;;17.30;64.57
25156;BME280;21913;52.456;13.634;2022-09-21T22:17:29;101224.78;;;17.30;64.48
25156;BME280;21913;52.456;13.634;2022-09-21T22:22:30;101230.00;;;17.30;64.52
25156;BME280;21913;52.456;13.634;2022-09-21T22:27:32;101228.25;;;17.31;64.47
25156;BME280;21913;52.456;13.634;2022-09-21T22:32:33;101222.19;;;17.29;64.64
25156;BME280;21913;52.456;13.634;2022-09-21T22:37:34;101224.78;;;17.30;64.47
25156;BME280;21913;52.456;13.634;2022-09-21T22:42:36;101230.00;;;17.30;64.64
25156;BME280;21913;52.456;13.634;2022-09-21T22:47:37;101222.16;;;17.30;64.71
25156;BME280;21913;52.456;13.634;2022-09-21T22:52:39;101229.13;;;17.30;64.69
25156;BME280;21913;52.456;13.634;2022-09-21T22:57:40;101219.53;;;17.30;64.47
25156;BME280;21913;52.456;13.634;2022-09-21T23:02:42;101217.78;;;17.31;64.56
25156;BME280;21913;52.456;13.634;2022-09-21T23:07:43;101216.94;;;17.30;64.56
25156;BME280;21913;52.456;13.634;2022-09-21T23:12:46;101209.06;;;17.30;64.45
25156;BME280;21913;52.456;13.634;2022-09-21T23:17:48;101215.19;;;17.29;64.85
25156;BME280;21913;52.456;13.634;2022-09-21T23:22:49;101216.94;;;17.30;64.39
25156;BME280;21913;52.456;13.634;2022-09-21T23:27:52;101217.78;;;17.31;64.62
25156;BME280;21913;52.456;13.634;2022-09-21T23:32:53;101212.56;;;17.29;64.71
25156;BME280;21913;52.456;13.634;2022-09-21T23:37:55;101209.09;;;17.29;64.76
25156;BME280;21913;52.456;13.634;2022-09-21T23:42:56;101207.34;;;17.29;64.50
25156;BME280;21913;52.456;13.634;2022-09-21T23:47:58;101205.59;;;17.30;64.86
25156;BME280;21913;52.456;13.634;2022-09-21T23:52:59;101204.72;;;17.31;64.52
25156;BME280;21913;52.456;13.634;2022-09-21T23:58:01;101202.13;;;17.29;64.61
